Airfield :
LOGIN :

Register | Disclaimer

   EN    FR    IT 

 










Legend :    VFR   Marginal VFR   IFR   Intensive IFR   Very Intensive IFR
Visi :
Ceiling :
>= 8 km
>= 3000ft
5 to 8 km
1000 to 3000 ft
1500m to 5 km
500 to 1000 ft
800 to 1500m
200 to 500 ft
< 800m
< 200 ft
Symbols :   Thunderstorms  Fog  Heavy snow  Heavy precipitations  Wind > 20 kt
SIGMETs :     Misc.  Thunderstorms  Icing  Turbulence  Mountain Waves  Volcanic Ashes






- Airport Elevation : 11 ft
- IATA code : MJV


LELC - Murcia San Javier

CURRENT METAR :
  • 210300Z AUTO 01007KT 8000 TS SCT039/// OVC047/// ///CB 11/11 Q1011

EXPIRED METARs :
  • 210230Z AUTO 06014G25KT 7000 VCTS SHRA SCT025/// BKN033/// BKN049/// ///CB 11/11 Q1012
  • 210200Z AUTO 01010KT 9000 -RA BKN035 BKN049 11/11 Q1012 RERA
  • 210130Z AUTO 01016G26KT 9000 RA SCT032 BKN046 10/10 Q1012 RERA
  • 210100Z AUTO 36014KT 8000 2600NE RA FEW036 SCT046 10/10 Q1013 RETS
  • 210030Z AUTO 36014KT 9999 VCTS BKN027/// BKN036/// OVC050/// ///CB 10/10 Q1013

TAF TAF LELC
Valid from the 21 at 00:00 until the 22 at 00:00 UTC


202300Z 2100/2124 03012KT 9999 SCT020 BKN030 TX14/2113Z TN07/2107Z
TEMPO 2100/2121 4000 SHRA SCT020 BKN030TCU
PROB40
TEMPO 2101/2110 05022G34KT 3000 TSRA SCT020 BKN030CB
BECMG 2108/2111 11009KT



MET'MAP, your aeronautical weather chart ! - Copyright ORBIFLY December 2007 - Disclaimer

ORBIFLY MET'MAP TEAM :

Programming & Development : Alexandra Zaïnal
Concept & original design : Baudouin d'Aumeries
Assistance for programming : Marc-Olivier Méhu
Technical & hardware support : Manuel Goepfert

Contact : metmap@orbifly.com




SOURCES & CREDITS :

   NOAA